Time;durP1;ratioP1;P1;durP2;ratioP2;P2;SDS_P1;SDS_P2;PMS_P1;PMS_P2;Temp;Humidity;BMP_temperature;BMP_pressure;BME280_temperature;BME280_humidity;BME280_pressure;Samples;Min_cycle;Max_cycle;Signal;HPM_P1;HPM_P2
2023/08/24 00:01:24;;;;;;;5.32;2.83;;;;;;;21.33;100.00;96490.03;5064209;28;20228;-66
2023/08/24 00:03:51;;;;;;;5.40;2.95;;;;;;;21.40;100.00;96490.75;5065147;28;20545;-66
2023/08/24 00:06:17;;;;;;;8.15;2.63;;;;;;;21.44;100.00;96502.63;5064236;28;20749;-66
2023/08/24 00:08:45;;;;;;;4.72;2.80;;;;;;;21.55;100.00;96499.13;5064993;28;20201;-66
2023/08/24 00:11:14;;;;;;;4.07;2.47;;;;;;;21.33;100.00;96495.41;5064115;28;20700;-67
2023/08/24 00:13:41;;;;;;;4.63;2.72;;;;;;;21.34;100.00;96494.38;5064902;28;20234;-66
2023/08/24 00:16:08;;;;;;;4.40;2.47;;;;;;;21.43;100.00;96495.63;5064421;28;20567;-66
2023/08/24 00:18:34;;;;;;;5.18;2.47;;;;;;;21.26;100.00;96500.09;5064425;28;20201;-66
2023/08/24 00:21:02;;;;;;;5.05;2.92;;;;;;;21.24;100.00;96501.38;5064532;28;20219;-67
2023/08/24 00:23:28;;;;;;;3.78;2.70;;;;;;;21.21;100.00;96491.16;5063519;28;20262;-66
2023/08/24 00:25:56;;;;;;;5.65;3.00;;;;;;;21.16;100.00;96483.78;5063966;28;20651;-67
2023/08/24 00:28:23;;;;;;;4.18;2.42;;;;;;;21.00;100.00;96489.06;5063815;28;20840;-66
2023/08/24 00:30:50;;;;;;;3.92;2.70;;;;;;;20.67;100.00;96486.16;5063943;28;20569;-66
2023/08/24 00:33:16;;;;;;;4.65;3.00;;;;;;;20.89;100.00;96481.88;5063260;28;20303;-67
2023/08/24 00:35:43;;;;;;;4.68;3.17;;;;;;;21.05;100.00;96471.25;5063975;28;20200;-66
2023/08/24 00:38:09;;;;;;;4.35;3.00;;;;;;;21.01;100.00;96472.75;5063835;28;20207;-65
2023/08/24 00:40:36;;;;;;;4.50;2.92;;;;;;;21.05;100.00;96471.25;5064243;28;20208;-66
2023/08/24 00:43:04;;;;;;;5.57;3.28;;;;;;;21.09;100.00;96466.22;5064183;28;20232;-66
2023/08/24 00:45:32;;;;;;;7.13;3.15;;;;;;;21.19;100.00;96469.91;5051774;28;20569;-66
2023/08/24 00:47:59;;;;;;;12.20;3.42;;;;;;;21.10;100.00;96471.34;5050497;28;20208;-66
2023/08/24 00:50:26;;;;;;;4.38;2.63;;;;;;;21.10;100.00;96471.34;5050335;28;20208;-66
2023/08/24 00:52:53;;;;;;;6.32;2.75;;;;;;;21.17;100.00;96463.19;5050054;28;20243;-66
2023/08/24 00:55:21;;;;;;;4.38;2.83;;;;;;;21.12;100.00;96471.91;5049726;28;20201;-66
2023/08/24 00:57:49;;;;;;;5.70;3.17;;;;;;;21.26;100.00;96462.56;5050307;28;20209;-66
2023/08/24 01:00:17;;;;;;;6.15;3.08;;;;;;;21.17;100.00;96465.88;5049915;28;20206;-65
2023/08/24 01:02:44;;;;;;;5.35;3.15;;;;;;;21.06;100.00;96462.13;5050280;28;20217;-66
2023/08/24 01:05:10;;;;;;;7.03;3.17;;;;;;;21.05;100.00;96457.03;5050185;28;20200;-66
2023/08/24 01:07:38;;;;;;;4.47;3.05;;;;;;;21.11;100.00;96456.88;5049430;28;20197;-66
2023/08/24 01:10:07;;;;;;;7.72;2.72;;;;;;;20.99;100.00;96468.66;5050532;28;20198;-66
2023/08/24 01:12:47;;;;;;;6.63;2.70;;;;;;;20.95;100.00;96471.03;5049603;28;20222;-66
2023/08/24 01:15:20;;;;;;;6.25;3.30;;;;;;;20.79;100.00;96475.47;5050367;28;20212;-66
2023/08/24 01:17:48;;;;;;;4.60;2.95;;;;;;;20.86;100.00;96474.28;5049545;28;20565;-67
2023/08/24 01:20:16;;;;;;;7.55;3.28;;;;;;;20.86;100.00;96475.13;5050274;28;20562;-66
2023/08/24 01:22:54;;;;;;;7.95;3.13;;;;;;;20.98;100.00;96475.91;5049701;28;20229;-66
2023/08/24 01:25:33;;;;;;;4.05;2.80;;;;;;;20.93;100.00;96478.47;5049912;28;20223;-66
2023/08/24 01:28:03;;;;;;;4.82;2.85;;;;;;;21.05;100.00;96465.88;5049554;28;20239;-66
2023/08/24 01:30:30;;;;;;;7.18;3.20;;;;;;;20.94;100.00;96466.72;5048735;28;21294;-66
2023/08/24 01:32:57;;;;;;;6.53;3.17;;;;;;;20.94;100.00;96464.03;5049594;28;20247;-65
2023/08/24 01:35:23;;;;;;;3.63;2.75;;;;;;;20.96;100.00;96459.28;5049018;28;20223;-66
2023/08/24 01:37:50;;;;;;;6.40;2.97;;;;;;;21.00;100.00;96459.59;5049946;28;20686;-65
2023/08/24 01:40:21;;;;;;;3.33;2.28;;;;;;;21.16;100.00;96459.69;5049256;28;20212;-66
2023/08/24 01:42:55;;;;;;;4.43;2.80;;;;;;;21.04;100.00;96458.91;5049511;28;20217;-66
2023/08/24 01:45:28;;;;;;;5.43;3.35;;;;;;;21.06;100.00;96454.09;5048817;28;20213;-66
2023/08/24 01:47:55;;;;;;;4.25;2.72;;;;;;;20.75;100.00;96456.38;5049599;28;20209;-66
2023/08/24 01:50:22;;;;;;;10.82;3.15;;;;;;;20.79;100.00;96452.19;5048637;28;20208;-65
2023/08/24 01:52:49;;;;;;;4.47;3.00;;;;;;;20.74;100.00;96452.06;5049357;28;20225;-66
2023/08/24 01:55:18;;;;;;;5.13;3.55;;;;;;;20.79;100.00;96454.84;5048210;28;20216;-65
2023/08/24 01:57:45;;;;;;;5.05;3.20;;;;;;;20.49;100.00;96442.59;5048485;28;20663;-65
2023/08/24 02:00:12;;;;;;;6.53;3.40;;;;;;;20.65;100.00;96437.38;5048757;28;20205;-65
2023/08/24 02:02:40;;;;;;;4.65;3.22;;;;;;;20.86;100.00;96426.91;5049177;28;20213;-66
2023/08/24 02:05:07;;;;;;;3.30;2.55;;;;;;;20.79;100.00;96432.63;5048660;28;20201;-66
2023/08/24 02:07:34;;;;;;;9.20;2.70;;;;;;;20.69;100.00;96432.38;5048974;28;20215;-65
2023/08/24 02:10:00;;;;;;;4.63;2.80;;;;;;;20.62;100.00;96432.50;5048385;28;20201;-66
2023/08/24 02:12:27;;;;;;;11.65;3.47;;;;;;;20.59;100.00;96434.81;5048659;28;20225;-66
2023/08/24 02:14:53;;;;;;;7.82;3.78;;;;;;;20.54;100.00;96429.34;5048778;28;20315;-65
2023/08/24 02:17:20;;;;;;;4.40;2.92;;;;;;;20.51;100.00;96416.44;5048768;28;20201;-65
2023/08/24 02:19:48;;;;;;;4.43;2.80;;;;;;;20.65;100.00;96421.28;5048892;28;20216;-65
2023/08/24 02:22:14;;;;;;;6.28;3.08;;;;;;;20.61;100.00;96420.13;5048801;28;20597;-65
2023/08/24 02:24:40;;;;;;;5.72;3.75;;;;;;;20.49;100.00;96415.84;5048438;28;20225;-66
2023/08/24 02:27:07;;;;;;;4.80;3.13;;;;;;;20.46;100.00;96422.47;5048866;28;20201;-65
2023/08/24 02:29:33;;;;;;;6.97;3.40;;;;;;;20.44;100.00;96411.19;5047539;28;20221;-66
2023/08/24 02:32:00;;;;;;;6.93;3.28;;;;;;;20.34;100.00;96413.63;5048964;28;20213;-66
2023/08/24 02:34:26;;;;;;;5.60;3.30;;;;;;;20.29;100.00;96420.75;5047447;28;20221;-65
2023/08/24 02:36:54;;;;;;;4.93;2.83;;;;;;;20.40;100.00;96418.06;5048287;28;20197;-65
2023/08/24 02:39:21;;;;;;;4.18;2.65;;;;;;;20.21;100.00;96410.34;5047919;28;20205;-66
2023/08/24 02:41:47;;;;;;;4.28;2.70;;;;;;;20.24;100.00;96413.41;5048511;28;20221;-65
2023/08/24 02:44:14;;;;;;;5.40;3.17;;;;;;;20.36;100.00;96411.53;5047889;28;20208;-66
2023/08/24 02:46:40;;;;;;;4.25;2.80;;;;;;;20.37;100.00;96418.50;5047574;28;20201;-67
2023/08/24 02:49:07;;;;;;;5.93;3.42;;;;;;;20.29;100.00;96420.75;5048632;28;20198;-66
2023/08/24 02:51:34;;;;;;;6.55;3.08;;;;;;;20.22;100.00;96420.81;5047309;28;20225;-67
2023/08/24 02:54:02;;;;;;;3.83;2.45;;;;;;;20.22;100.00;96420.03;5048633;28;20229;-67
2023/08/24 02:56:28;;;;;;;5.45;2.78;;;;;;;19.94;100.00;96419.88;5046669;28;20205;-66
2023/08/24 02:58:55;;;;;;;5.03;3.17;;;;;;;20.05;100.00;96418.25;5048104;28;20209;-66
2023/08/24 03:01:21;;;;;;;5.03;3.28;;;;;;;20.06;100.00;96414.53;5047068;28;20221;-66
2023/08/24 03:03:48;;;;;;;5.88;3.53;;;;;;;20.15;100.00;96418.50;5048191;28;20202;-66
2023/08/24 03:06:14;;;;;;;5.90;3.05;;;;;;;20.17;100.00;96414.53;5047120;28;20224;-66
2023/08/24 03:08:41;;;;;;;4.95;3.42;;;;;;;20.20;100.00;96414.91;5048047;28;20284;-67
2023/08/24 03:11:08;;;;;;;5.55;3.70;;;;;;;20.31;100.00;96414.09;5047818;28;20197;-67
2023/08/24 03:13:37;;;;;;;5.55;2.92;;;;;;;20.25;100.00;96419.53;5047143;28;20225;-67
2023/08/24 03:16:07;;;;;;;4.63;3.17;;;;;;;20.16;100.00;96414.78;5048141;28;20796;-65
2023/08/24 03:18:33;;;;;;;4.03;2.95;;;;;;;19.97;100.00;96407.88;5047251;28;20266;-66
2023/08/24 03:21:00;;;;;;;5.53;3.38;;;;;;;19.94;100.00;96414.50;5048078;28;20197;-66
2023/08/24 03:23:27;;;;;;;6.63;3.67;;;;;;;19.88;100.00;96420.78;5047440;28;20213;-67
2023/08/24 03:25:54;;;;;;;6.65;3.92;;;;;;;19.80;100.00;96426.44;5047717;28;20203;-67
2023/08/24 03:28:21;;;;;;;9.80;3.83;;;;;;;19.99;100.00;96419.19;5046753;28;20205;-66
2023/08/24 03:30:49;;;;;;;4.55;3.03;;;;;;;20.02;100.00;96416.03;5047819;28;20197;-66
2023/08/24 03:33:16;;;;;;;4.45;3.10;;;;;;;19.80;100.00;96415.72;5047409;28;20225;-66
2023/08/24 03:38:10;;;;;;;5.95;3.58;;;;;;;20.04;100.00;96416.63;4990596;28;20286;-71
2023/08/24 03:40:37;;;;;;;7.43;3.85;;;;;;;20.04;100.00;96412.09;4988285;28;20683;-72
2023/08/24 03:43:04;;;;;;;8.80;3.88;;;;;;;20.09;100.00;96414.09;4989721;28;20196;-71
2023/08/24 03:45:32;;;;;;;9.75;3.70;;;;;;;20.22;100.00;96422.69;4988409;28;20209;-72
2023/08/24 03:47:58;;;;;;;5.90;4.00;;;;;;;20.16;100.00;96418.25;4970798;28;20204;-70
2023/08/24 03:50:25;;;;;;;5.28;3.30;;;;;;;20.06;100.00;96422.56;4970550;28;20210;-72
2023/08/24 03:52:54;;;;;;;5.70;3.45;;;;;;;20.04;100.00;96422.00;4970759;28;20212;-72
2023/08/24 03:55:20;;;;;;;6.43;3.85;;;;;;;19.97;100.00;96424.78;4970438;28;20226;-71
2023/08/24 03:57:47;;;;;;;9.20;3.80;;;;;;;19.85;100.00;96418.53;4970971;28;20219;-71
2023/08/24 04:00:14;;;;;;;10.57;3.80;;;;;;;20.10;100.00;96411.19;4978015;28;20200;-71
2023/08/24 04:02:42;;;;;;;6.35;4.07;;;;;;;20.15;100.00;96400.59;4972359;28;20208;-70
2023/08/24 04:05:09;;;;;;;4.57;3.33;;;;;;;19.89;100.00;96403.66;4972364;28;20207;-70
2023/08/24 04:07:38;;;;;;;8.20;3.70;;;;;;;19.78;100.00;96391.09;4971898;28;20223;-72
2023/08/24 04:10:05;;;;;;;8.60;3.80;;;;;;;19.69;100.00;96392.47;4974363;28;20203;-71
2023/08/24 04:12:31;;;;;;;10.48;3.90;;;;;;;19.78;100.00;96391.09;4972996;28;20661;-71
2023/08/24 04:14:58;;;;;;;5.82;3.83;;;;;;;19.88;100.00;96391.34;4975297;28;20220;-70
2023/08/24 04:17:25;;;;;;;5.68;3.53;;;;;;;19.83;100.00;96393.91;4970474;28;20219;-72
2023/08/24 04:19:53;;;;;;;7.50;3.97;;;;;;;19.90;100.00;96399.94;4972527;28;20199;-71
2023/08/24 04:22:19;;;;;;;6.45;3.70;;;;;;;19.85;100.00;96397.13;4977637;28;20682;-73
2023/08/24 04:24:46;;;;;;;7.00;3.97;;;;;;;19.90;100.00;96397.28;4974412;28;20658;-73
2023/08/24 04:27:12;;;;;;;7.70;4.35;;;;;;;19.82;100.00;96386.13;4974234;28;20229;-73
2023/08/24 04:29:39;;;;;;;9.10;4.90;;;;;;;19.89;100.00;96387.59;4980315;28;20584;-72
2023/08/24 04:32:05;;;;;;;7.28;3.88;;;;;;;19.96;100.00;96391.03;4974780;28;20211;-73
2023/08/24 04:34:32;;;;;;;6.43;3.72;;;;;;;19.95;100.00;96400.09;4974037;28;20227;-71
2023/08/24 04:37:01;;;;;;;9.75;4.70;;;;;;;20.09;100.00;96398.03;4976441;28;20227;-70
2023/08/24 04:39:29;;;;;;;5.22;3.78;;;;;;;19.85;100.00;96397.13;4974210;28;20239;-71
2023/08/24 04:41:55;;;;;;;7.35;4.40;;;;;;;20.01;100.00;96396.50;4974216;28;20674;-74
2023/08/24 04:44:22;;;;;;;7.38;4.30;;;;;;;19.91;100.00;96398.13;4975467;28;20681;-69
2023/08/24 04:46:49;;;;;;;8.38;4.45;;;;;;;19.94;100.00;96395.78;4973558;28;20223;-74
2023/08/24 04:49:15;;;;;;;9.70;4.32;;;;;;;20.03;100.00;96397.09;4973889;28;20231;-72
2023/08/24 04:51:42;;;;;;;9.18;4.82;;;;;;;20.10;100.00;96403.16;4973535;28;20692;-72
2023/08/24 04:54:10;;;;;;;10.32;4.07;;;;;;;20.33;100.00;96405.84;4973236;28;20238;-73
2023/08/24 04:56:36;;;;;;;7.10;3.90;;;;;;;20.18;100.00;96402.81;4974102;28;20270;-72
2023/08/24 04:59:03;;;;;;;6.65;3.97;;;;;;;20.27;100.00;96406.75;4978757;28;20199;-71
2023/08/24 05:01:31;;;;;;;7.63;4.47;;;;;;;20.35;100.00;96399.22;4984429;28;20307;-72
2023/08/24 05:03:58;;;;;;;9.48;4.38;;;;;;;20.30;100.00;96407.13;4978294;28;20200;-72
2023/08/24 05:06:24;;;;;;;11.27;4.85;;;;;;;20.35;100.00;96399.22;4973604;28;20228;-72
2023/08/24 05:08:51;;;;;;;7.82;4.30;;;;;;;20.46;100.00;96394.88;4980745;28;20207;-71
2023/08/24 05:11:20;;;;;;;6.00;3.97;;;;;;;20.72;100.00;96383.66;4981317;28;20196;-71
2023/08/24 05:13:46;;;;;;;13.75;4.47;;;;;;;20.90;100.00;96390.53;4977853;28;20217;-72
2023/08/24 05:16:14;;;;;;;8.45;4.43;;;;;;;20.99;100.00;96381.06;4972786;28;20220;-72
2023/08/24 05:18:40;;;;;;;10.40;4.43;;;;;;;20.91;100.00;96394.03;4972825;28;21154;-72
2023/08/24 05:21:07;;;;;;;10.15;4.07;;;;;;;20.88;100.00;96389.94;4979792;28;20218;-72
2023/08/24 05:23:35;;;;;;;6.07;4.10;;;;;;;21.04;100.00;96383.88;4972898;28;20211;-72
2023/08/24 05:26:03;;;;;;;7.72;4.10;;;;;;;21.08;100.00;96376.16;4972621;28;20224;-72
2023/08/24 05:28:32;;;;;;;9.93;5.25;;;;;;;21.07;100.00;96380.69;4975928;28;20215;-72
2023/08/24 05:30:59;;;;;;;8.30;4.30;;;;;;;21.06;100.00;96373.72;4979185;28;20206;-71
2023/08/24 05:33:26;;;;;;;10.60;4.60;;;;;;;21.37;100.00;96380.47;4978521;28;20204;-72
2023/08/24 05:35:53;;;;;;;7.60;4.65;;;;;;;21.37;100.00;96373.22;4972920;28;20231;-72
2023/08/24 05:38:19;;;;;;;6.63;4.38;;;;;;;21.66;100.00;96372.19;4972458;28;20208;-72
2023/08/24 05:40:49;;;;;;;7.05;4.13;;;;;;;21.99;100.00;96381.06;4973414;28;20295;-72
2023/08/24 05:43:15;;;;;;;18.80;4.85;;;;;;;21.71;100.00;96367.72;4972637;28;20206;-72
2023/08/24 05:45:44;;;;;;;10.55;5.47;;;;;;;21.76;100.00;96362.44;4973748;28;20210;-70
2023/08/24 05:48:11;;;;;;;7.15;4.30;;;;;;;21.62;100.00;96361.13;4975745;28;20607;-71
2023/08/24 05:50:38;;;;;;;8.75;4.38;;;;;;;21.75;100.00;96360.81;4975832;28;20815;-72
2023/08/24 05:53:07;;;;;;;8.98;4.65;;;;;;;21.94;100.00;96364.09;4972706;28;20207;-72
2023/08/24 05:55:34;;;;;;;8.93;4.90;;;;;;;21.71;100.00;96364.22;4973338;28;20318;-72
2023/08/24 05:58:00;;;;;;;8.27;4.80;;;;;;;21.89;100.00;96361.31;4972566;28;20204;-71
2023/08/24 06:00:27;;;;;;;9.20;4.72;;;;;;;22.08;100.00;96358.97;4972370;28;20208;-72
2023/08/24 06:02:55;;;;;;;7.68;4.75;;;;;;;22.45;100.00;96361.94;4972306;28;20310;-72
2023/08/24 06:05:21;;;;;;;8.52;3.92;;;;;;;22.41;100.00;96358.13;4973045;28;20207;-72
2023/08/24 06:07:49;;;;;;;9.40;5.00;;;;;;;22.55;100.00;96352.16;4978835;28;20696;-72
2023/08/24 06:10:20;;;;;;;11.07;5.32;;;;;;;22.43;100.00;96343.41;4986549;28;20191;-73
2023/08/24 06:12:46;;;;;;;9.82;4.80;;;;;;;22.45;100.00;96346.63;4991654;28;20204;-72
2023/08/24 06:15:13;;;;;;;6.45;4.35;;;;;;;22.61;100.00;96345.00;4974459;28;20227;-72
2023/08/24 06:17:39;;;;;;;9.90;4.72;;;;;;;22.68;100.00;96343.72;4972097;28;20278;-72
2023/08/24 06:20:10;;;;;;;10.02;4.43;;;;;;;23.08;100.00;96331.63;4972139;28;20203;-71
2023/08/24 06:22:37;;;;;;;7.70;4.28;;;;;;;22.85;100.00;96342.63;4973881;28;20216;-72
2023/08/24 06:25:05;;;;;;;7.13;4.22;;;;;;;22.96;100.00;96348.91;4971544;28;20200;-71
2023/08/24 06:27:31;;;;;;;6.78;3.17;;;;;;;23.17;100.00;96348.13;4971493;28;20310;-71
2023/08/24 06:29:58;;;;;;;5.28;3.42;;;;;;;23.39;100.00;96347.03;4972027;28;20200;-70
2023/08/24 06:32:24;;;;;;;6.68;3.47;;;;;;;23.44;100.00;96334.44;4971542;28;20203;-71
2023/08/24 06:34:51;;;;;;;8.23;3.78;;;;;;;23.49;100.00;96333.69;4971611;28;20819;-71
2023/08/24 06:37:19;;;;;;;6.75;3.63;;;;;;;23.69;100.00;96332.03;4971761;28;20235;-71
2023/08/24 06:39:45;;;;;;;8.27;4.45;;;;;;;23.53;100.00;96327.53;4971213;28;20207;-71
2023/08/24 06:42:12;;;;;;;6.95;4.55;;;;;;;23.53;100.00;96330.22;4971895;28;20665;-71
2023/08/24 06:44:38;;;;;;;5.88;3.60;;;;;;;23.41;100.00;96324.19;4971425;28;20200;-72
2023/08/24 06:47:05;;;;;;;8.25;5.10;;;;;;;23.51;100.00;96313.53;4971473;28;20730;-72
2023/08/24 06:49:31;;;;;;;8.93;3.55;;;;;;;23.63;100.00;96316.06;4972031;28;20210;-72
2023/08/24 06:51:58;;;;;;;8.90;4.03;;;;;;;23.66;100.00;96312.84;4971933;28;20207;-73
2023/08/24 06:54:26;;;;;;;6.70;3.70;;;;;;;23.91;100.00;96319.28;4971358;28;20215;-71
2023/08/24 06:56:52;;;;;;;5.68;3.72;;;;;;;23.86;100.00;96321.94;4971191;28;20223;-73
2023/08/24 06:59:19;;;;;;;5.32;3.58;;;;;;;23.91;100.00;96316.59;4972095;28;20196;-71
2023/08/24 07:01:47;;;;;;;7.70;3.92;;;;;;;24.07;100.00;96318.31;4971035;28;20208;-71
2023/08/24 07:04:13;;;;;;;5.13;3.60;;;;;;;24.28;100.00;96323.59;4971653;28;20232;-73
2023/08/24 07:06:41;;;;;;;6.32;3.70;;;;;;;24.36;100.00;96309.63;4969414;28;20235;-72
2023/08/24 07:09:07;;;;;;;5.90;3.42;;;;;;;24.62;100.00;96317.63;4971200;28;20223;-71
2023/08/24 07:11:35;;;;;;;5.57;3.53;;;;;;;25.00;100.00;96322.66;4970763;28;20216;-71
2023/08/24 07:14:02;;;;;;;7.82;3.85;;;;;;;25.20;100.00;96317.34;4970922;28;20215;-72
2023/08/24 07:16:28;;;;;;;10.18;3.90;;;;;;;25.42;100.00;96326.03;4970216;28;20227;-71
2023/08/24 07:18:55;;;;;;;5.40;3.38;;;;;;;25.47;100.00;96334.13;4970955;28;20798;-72
2023/08/24 07:21:21;;;;;;;4.65;3.33;;;;;;;25.50;100.00;96333.63;4970953;28;20207;-72
2023/08/24 07:23:48;;;;;;;7.30;3.83;;;;;;;25.51;100.00;96332.53;4974445;28;20558;-72
2023/08/24 07:26:14;;;;;;;6.13;3.72;;;;;;;25.79;100.00;96334.75;4970929;28;20219;-72
2023/08/24 07:28:42;;;;;;;6.00;3.05;;;;;;;25.87;100.00;96343.94;4971622;28;20214;-73
2023/08/24 07:31:10;;;;;;;5.45;3.40;;;;;;;25.61;100.00;96344.16;4973819;28;20203;-70
2023/08/24 07:33:37;;;;;;;8.63;2.97;;;;;;;25.71;100.00;96343.41;4970425;28;20254;-71
2023/08/24 07:36:04;;;;;;;7.18;3.78;;;;;;;25.63;100.00;96320.41;4970302;28;20232;-72
2023/08/24 07:38:30;;;;;;;5.57;3.30;;;;;;;25.30;100.00;96301.19;4970346;28;20615;-70
2023/08/24 07:40:57;;;;;;;6.20;3.47;;;;;;;25.38;100.00;96306.88;4970828;28;20219;-71
2023/08/24 07:43:24;;;;;;;7.80;3.70;;;;;;;25.23;100.00;96304.16;4970827;28;20259;-71
2023/08/24 07:45:52;;;;;;;5.78;3.28;;;;;;;25.30;100.00;96303.88;4970251;28;20220;-73
2023/08/24 07:48:19;;;;;;;4.47;3.10;;;;;;;25.14;100.00;96315.72;4971420;28;20271;-73
2023/08/24 07:50:45;;;;;;;6.30;3.75;;;;;;;25.12;100.00;96325.97;4970083;28;20208;-72
2023/08/24 07:53:12;;;;;;;6.10;3.10;;;;;;;25.52;100.00;96326.06;4978072;28;20200;-72
2023/08/24 07:55:38;;;;;;;5.53;3.35;;;;;;;25.75;100.00;96325.56;4972858;28;20231;-71
2023/08/24 07:58:05;;;;;;;6.65;3.10;;;;;;;25.85;100.00;96327.22;4974521;28;20208;-73
2023/08/24 08:00:31;;;;;;;6.13;3.80;;;;;;;25.78;100.00;96333.16;4975579;28;20207;-71
2023/08/24 08:02:59;;;;;;;7.07;3.47;;;;;;;26.07;100.00;96327.75;4974160;28;20219;-71
2023/08/24 08:05:26;;;;;;;5.90;3.35;;;;;;;25.90;100.00;96329.91;4975153;28;20203;-72
2023/08/24 08:07:53;;;;;;;6.05;3.33;;;;;;;25.74;100.00;96321.25;4974093;28;20207;-72
2023/08/24 08:10:21;;;;;;;6.43;3.17;;;;;;;25.80;100.00;96322.88;4974533;28;20209;-72
2023/08/24 08:12:47;;;;;;;6.50;3.55;;;;;;;25.87;100.00;96322.34;4973719;28;20208;-72
2023/08/24 08:15:14;;;;;;;6.20;3.50;;;;;;;25.68;100.00;96316.91;4977622;28;20967;-71
2023/08/24 08:17:42;;;;;;;6.72;3.25;;;;;;;25.77;100.00;96315.34;4973205;28;20235;-72
2023/08/24 08:20:11;;;;;;;6.13;3.13;;;;;;;26.25;100.00;96315.59;4974073;28;20203;-72
2023/08/24 08:22:38;;;;;;;4.75;3.22;;;;;;;26.58;100.00;96313.13;4973667;28;20246;-72
2023/08/24 08:25:05;;;;;;;5.72;3.85;;;;;;;26.91;100.00;96307.88;4974170;28;20561;-72
2023/08/24 08:27:32;;;;;;;5.47;2.97;;;;;;;26.77;100.00;96311.41;4978402;28;20231;-72
2023/08/24 08:29:59;;;;;;;4.97;3.17;;;;;;;27.05;100.00;96308.09;4974886;28;20669;-73
2023/08/24 08:32:27;;;;;;;4.47;2.92;;;;;;;27.04;100.00;96298.34;4974142;28;20223;-72
2023/08/24 08:34:54;;;;;;;6.72;3.50;;;;;;;27.32;100.00;96290.38;4973155;28;20700;-72
2023/08/24 08:37:21;;;;;;;4.65;2.85;;;;;;;27.51;100.00;96285.91;4973830;28;20737;-71
2023/08/24 08:39:48;;;;;;;3.92;2.85;;;;;;;27.33;100.00;96289.25;4973174;28;20223;-71
2023/08/24 08:42:15;;;;;;;4.65;2.97;;;;;;;27.60;100.00;96293.19;4974053;28;20196;-72
2023/08/24 08:44:42;;;;;;;4.97;2.80;;;;;;;27.64;100.00;96290.75;4972659;28;20204;-72
2023/08/24 08:47:10;;;;;;;4.78;3.00;;;;;;;27.99;100.00;96294.78;4973728;28;20216;-72
2023/08/24 08:49:39;;;;;;;6.95;3.47;;;;;;;28.06;100.00;96278.19;4976387;28;20211;-72
2023/08/24 08:52:06;;;;;;;4.88;2.90;;;;;;;28.03;98.68;96285.00;4980392;28;20673;-71
2023/08/24 08:54:34;;;;;;;10.07;3.38;;;;;;;28.19;100.00;96280.28;4973277;28;20230;-71
2023/08/24 08:57:01;;;;;;;5.53;3.55;;;;;;;28.57;100.00;96272.00;4973039;28;20595;-72
2023/08/24 08:59:30;;;;;;;5.82;3.75;;;;;;;28.50;97.94;96277.78;4978657;28;20670;-71
2023/08/24 09:01:57;;;;;;;5.80;3.15;;;;;;;28.48;97.45;96276.44;4977166;28;20239;-72
2023/08/24 09:04:25;;;;;;;5.28;3.13;;;;;;;28.41;99.17;96275.97;4973276;28;20278;-71
2023/08/24 09:06:51;;;;;;;5.38;3.17;;;;;;;28.62;97.28;96270.03;4972190;28;20230;-72
2023/08/24 09:09:18;;;;;;;6.22;3.47;;;;;;;28.61;96.72;96273.84;4973376;28;20208;-71
2023/08/24 09:11:47;;;;;;;6.15;2.95;;;;;;;28.91;95.62;96272.69;4973033;28;20577;-73
2023/08/24 09:14:14;;;;;;;6.72;3.15;;;;;;;28.91;100.00;96275.41;4973318;28;20282;-71
2023/08/24 09:16:42;;;;;;;7.07;2.95;;;;;;;28.79;94.65;96269.59;4972694;28;20234;-71
2023/08/24 09:19:12;;;;;;;5.18;3.13;;;;;;;28.84;96.30;96269.56;4973007;28;20200;-71
2023/08/24 09:21:41;;;;;;;8.35;3.08;;;;;;;29.10;99.38;96268.94;4973707;28;20211;-72
2023/08/24 09:24:08;;;;;;;5.95;3.10;;;;;;;29.14;96.93;96259.13;4973928;28;20748;-71
2023/08/24 09:26:42;;;;;;;5.47;3.28;;;;;;;29.26;97.33;96254.84;4972371;28;20656;-72
2023/08/24 09:29:13;;;;;;;7.22;3.38;;;;;;;29.56;96.95;96264.50;4977877;28;20204;-72
2023/08/24 09:31:43;;;;;;;6.97;3.33;;;;;;;29.43;93.30;96265.22;4972625;28;20211;-72
2023/08/24 09:34:10;;;;;;;7.13;3.00;;;;;;;29.47;93.56;96263.53;4976472;28;20626;-71
2023/08/24 09:39:06;;;;;;;5.85;3.20;;;;;;;29.40;96.09;96260.41;5047776;28;20271;-67
2023/08/24 09:41:39;;;;;;;7.57;3.08;;;;;;;29.96;90.41;96257.34;5049872;28;20205;-67
2023/08/24 09:44:06;;;;;;;4.25;2.80;;;;;;;29.86;93.04;96253.97;5050056;28;20209;-67
2023/08/24 09:46:35;;;;;;;5.32;2.90;;;;;;;30.46;89.40;96253.75;5049617;28;20236;-67
2023/08/24 09:49:01;;;;;;;4.80;2.83;;;;;;;30.33;91.10;96249.91;5049703;28;20227;-67
2023/08/24 09:51:28;;;;;;;6.15;3.50;;;;;;;30.51;94.20;96259.09;5050058;28;20213;-67
2023/08/24 09:53:58;;;;;;;6.22;3.17;;;;;;;30.60;90.34;96249.13;5049716;28;20292;-67
2023/08/24 09:56:26;;;;;;;5.53;3.05;;;;;;;30.61;87.05;96248.81;5048922;28;20718;-67
2023/08/24 09:58:55;;;;;;;5.95;2.95;;;;;;;30.60;86.43;96249.97;5049707;28;20215;-67
2023/08/24 10:01:22;;;;;;;3.88;2.80;;;;;;;30.78;87.74;96246.34;5049089;28;20555;-67
2023/08/24 10:03:52;;;;;;;3.97;2.58;;;;;;;31.03;82.39;96240.38;5049381;28;20208;-68
2023/08/24 10:06:21;;;;;;;5.07;2.95;;;;;;;31.11;84.84;96242.38;5048312;28;20274;-67
2023/08/24 10:08:51;;;;;;;3.13;2.58;;;;;;;30.96;87.93;96242.72;5049623;28;20205;-67
2023/08/24 10:11:23;;;;;;;5.07;3.00;;;;;;;31.20;85.80;96227.75;5049563;28;20205;-68
2023/08/24 10:13:58;;;;;;;6.65;3.38;;;;;;;31.71;78.81;96228.22;5049408;28;20197;-68
2023/08/24 10:16:25;;;;;;;4.35;2.85;;;;;;;31.45;83.63;96213.53;5048550;28;20270;-68
2023/08/24 10:18:53;;;;;;;4.13;2.83;;;;;;;31.25;81.98;96196.84;5048874;28;20198;-67
2023/08/24 10:21:21;;;;;;;4.47;2.75;;;;;;;31.34;84.00;96200.47;5049478;28;20205;-68
2023/08/24 10:23:47;;;;;;;4.47;2.65;;;;;;;31.24;87.71;96201.50;5049348;28;20212;-67
2023/08/24 10:26:17;;;;;;;4.20;2.83;;;;;;;31.20;83.09;96189.63;5048992;28;20213;-67
2023/08/24 10:28:44;;;;;;;4.50;2.78;;;;;;;31.12;90.25;96193.09;5049013;28;20242;-67
2023/08/24 10:31:11;;;;;;;4.28;2.85;;;;;;;31.06;85.13;96188.03;5048924;28;20940;-67
2023/08/24 10:33:38;;;;;;;4.80;2.67;;;;;;;31.35;85.10;96185.75;5049268;28;20201;-67
2023/08/24 10:36:07;;;;;;;5.50;2.65;;;;;;;31.94;79.54;96184.28;5048549;28;20235;-67
2023/08/24 10:38:40;;;;;;;3.92;2.20;;;;;;;31.88;77.83;96180.06;5048734;28;20216;-67
2023/08/24 10:41:07;;;;;;;4.28;2.55;;;;;;;31.94;79.44;96180.72;5048361;28;20205;-67
2023/08/24 10:43:36;;;;;;;4.32;2.58;;;;;;;32.14;74.74;96176.41;5048643;28;20686;-67
2023/08/24 10:46:03;;;;;;;3.33;2.45;;;;;;;32.14;74.43;96175.59;5048525;28;20771;-67
2023/08/24 10:48:31;;;;;;;3.95;2.40;;;;;;;31.99;75.53;96167.78;5048632;28;20300;-67
2023/08/24 10:51:23;;;;;;;3.65;2.10;;;;;;;32.28;72.17;96159.94;5048822;28;20209;-67
2023/08/24 10:53:53;;;;;;;4.38;2.15;;;;;;;32.63;70.55;96161.72;5048427;28;20209;-67
2023/08/24 10:56:20;;;;;;;3.60;2.47;;;;;;;32.26;77.82;96154.78;5048337;28;20229;-67
2023/08/24 10:58:48;;;;;;;5.43;3.08;;;;;;;32.54;76.89;96148.03;5048809;28;20221;-67
2023/08/24 11:01:18;;;;;;;2.60;2.03;;;;;;;32.41;73.15;96140.75;5048593;28;20201;-67
2023/08/24 11:03:50;;;;;;;3.35;2.25;;;;;;;32.50;68.60;96141.56;5048691;28;20201;-67
2023/08/24 11:06:22;;;;;;;3.00;2.13;;;;;;;32.47;68.24;96139.47;5048310;28;20650;-67
2023/08/24 11:08:49;;;;;;;4.20;2.63;;;;;;;32.34;72.89;96134.91;5048246;28;20220;-67
2023/08/24 11:11:20;;;;;;;5.72;2.47;;;;;;;32.84;69.76;96128.00;5048579;28;20205;-67
2023/08/24 11:14:14;;;;;;;2.95;1.95;;;;;;;32.99;72.33;96127.56;5036065;28;20228;-67
2023/08/24 11:16:42;;;;;;;6.88;2.05;;;;;;;32.67;69.64;96122.53;5028358;28;20239;-67
2023/08/24 11:19:09;;;;;;;3.05;2.20;;;;;;;32.62;69.45;96119.94;5034896;28;20213;-67
2023/08/24 11:21:39;;;;;;;2.78;1.95;;;;;;;32.84;68.28;96125.28;5035166;28;20215;-67
2023/08/24 11:24:06;;;;;;;3.03;2.00;;;;;;;33.08;68.57;96114.75;5034394;28;20302;-67
2023/08/24 11:26:33;;;;;;;3.45;2.25;;;;;;;33.09;66.42;96111.69;5033681;28;21018;-67
2023/08/24 11:28:59;;;;;;;3.42;2.08;;;;;;;33.01;69.24;96108.94;5034287;28;20213;-67
2023/08/24 11:31:26;;;;;;;3.22;1.95;;;;;;;33.13;64.65;96109.91;5034439;28;20201;-67
2023/08/24 11:33:56;;;;;;;5.32;2.10;;;;;;;33.26;63.76;96110.88;5034679;28;20209;-67